New Richmond, OH (45157)

5:10 AM EDT on September 01, 2014 (GMT -0400)
Summer Hill | Change Station
CLOSE
Current Station
Personal Weather Station
Location: California, KY
Elevation: 833 ft
Nearby Weather Stations

Elev 833 ft 38.93 °N, 84.29 °W | Updated 2 seconds ago

Overcast
Overcast
73.0 °F
Feels Like 73 °F
N
4.5
Wind Variable Wind from SE
Gusts 6.0 mph

Today
High -- | Low -- °F
--% Chance of Precip.
Yesterday
High -- | Low -- °F
Precip. -- in
7:05 AM 8:07 PM
Waxing Crescent, 39% visible
Pressure 30.01 in
Visibility 10.0 miles
Clouds Overcast 600 ft
Heat Index 73 °F
Dew Point 13 °F
Humidity 10%
Rainfall 0.00 in
Snow Depth Not available.
UV 0 out of 12
Pollen .70 out of 12
Ozone Good
PM2.5 Good
Flu Activity Not available.
METAR KI69 010855Z AUTO 23005KT 10SM OVC006 23/23 A3001 RMK AO1

More Conditions Fewer Conditions

Pressure 30.01 in
Visibility 10.0 miles
Clouds Overcast 600 ft
Heat Index 73 °F
Dew Point 13 °F
Humidity 10%
Rainfall 0.00 in
Snow Depth Not available.
UV 0 out of 12
Pollen .70 out of 12
Ozone Good
PM2.5 Good
Flu Activity Not available.
METAR KI69 010855Z AUTO 23005KT 10SM OVC006 23/23 A3001 RMK AO1

More Conditions Fewer Conditions

10-Day Weather Forecast

Almanac

Astronomy

Sep. 01, 2014 Rise Set
Actual Time 7:05 AM EDT 8:07 PM EDT
Civil Twilight 6:38 AM EDT 8:34 PM EDT
Nautical Twilight 6:05 AM EDT 9:06 PM EDT
Astronomical Twilight 5:31 AM EDT 9:40 PM EDT
Moon 1:47 PM EDT No Moon Set
Length of Visible Light 13h 56m
Length of Day
13h 01m
Tomorrow will be 2m 27s shorter.
Waxing Crescent, 39% of the Moon is Illuminated
Today
Waxing Crescent
Sep 2
First Quarter
Sep 8
Full
Sep 15
Last Quarter
Sep 24
New

Today's Extremes

State Highs State Lows

Community

WunderPhotos

Upload Photos

1,749,178 photos uploaded!

Nearby

Air Quality

  Air Quality AQ Index Pollutant
Yesterday Good
PM10
Yesterday Good
OZONE
Current Good
PM2.5
Current Good
OZONE
Monday Moderate
PM2.5
Monday Good
OZONE
Tuesday Moderate
PM2.5
Tuesday Good
OZONE

Snow Depth

Station Depth Elevation
No new snow has been reported.

Earthquake Activity

City Distance Mag. Time & Date
No recent earthquake activity has been reported nearby.
Minimum magnitude displayed is 2.5.

Coastal Water Temperatures

Place Temperature
No Stations Reporting

Nearby Weather Stations